createdAt,value
2022-09-22T00:01:37.556Z,3.72
2022-09-22T00:04:07.936Z,3.72
2022-09-22T00:06:38.875Z,3.47
2022-09-22T00:09:09.586Z,3.45
2022-09-22T00:11:40.689Z,3.50
2022-09-22T00:14:10.895Z,3.72
2022-09-22T00:16:42.106Z,3.55
2022-09-22T00:19:13.681Z,3.40
2022-09-22T00:21:41.586Z,3.17
2022-09-22T00:24:09.951Z,3.72
2022-09-22T00:26:40.138Z,3.53
2022-09-22T00:29:10.397Z,3.58
2022-09-22T00:31:40.722Z,3.50
2022-09-22T00:34:13.524Z,3.22
2022-09-22T00:36:41.548Z,3.63
2022-09-22T00:39:09.740Z,3.20
2022-09-22T00:41:41.990Z,3.20
2022-09-22T00:44:32.908Z,3.40
2022-09-22T00:47:04.645Z,3.50
2022-09-22T00:49:38.138Z,4.03
2022-09-22T00:52:06.751Z,3.15
2022-09-22T00:54:35.801Z,3.03
2022-09-22T00:57:09.789Z,3.42
2022-09-22T00:59:38.459Z,4.00
2022-09-22T01:02:07.226Z,3.22
2022-09-22T01:04:35.883Z,3.28
2022-09-22T01:07:27.156Z,3.50
2022-09-22T01:09:56.520Z,3.38
2022-09-22T01:12:27.973Z,3.40
2022-09-22T01:15:19.555Z,3.65
2022-09-22T01:17:59.313Z,3.40
2022-09-22T01:21:06.530Z,3.40
2022-09-22T01:24:03.092Z,3.15
2022-09-22T01:27:12.181Z,3.60
2022-09-22T01:30:07.319Z,3.42
2022-09-22T01:32:44.125Z,3.50
2022-09-22T01:35:20.895Z,3.28
2022-09-22T01:37:59.775Z,3.30
2022-09-22T01:40:34.670Z,3.20
2022-09-22T01:43:10.611Z,3.40
2022-09-22T01:45:43.146Z,3.33
2022-09-22T01:48:15.407Z,3.17
2022-09-22T01:50:47.582Z,3.67
2022-09-22T01:53:20.043Z,3.67
2022-09-22T01:55:56.363Z,3.45
2022-09-22T01:58:30.630Z,3.17
2022-09-22T02:01:04.489Z,4.07
2022-09-22T02:03:39.066Z,3.35
2022-09-22T02:06:11.862Z,3.60
2022-09-22T02:08:46.262Z,3.20
2022-09-22T02:11:16.732Z,3.40
2022-09-22T02:13:47.748Z,3.20
2022-09-22T02:16:19.823Z,2.97
2022-09-22T02:18:51.999Z,3.10
2022-09-22T02:21:21.985Z,2.80
2022-09-22T02:23:50.398Z,2.97
2022-09-22T02:26:24.075Z,2.85
2022-09-22T02:28:55.060Z,3.42
2022-09-22T02:31:29.508Z,2.75
2022-09-22T02:33:57.755Z,3.47
2022-09-22T02:36:44.554Z,2.95
2022-09-22T02:39:18.633Z,2.65
2022-09-22T02:41:58.649Z,2.92
2022-09-22T02:44:32.689Z,3.10
2022-09-22T02:47:08.894Z,2.92
2022-09-22T02:49:37.752Z,3.00
2022-09-22T02:52:10.292Z,3.00
2022-09-22T02:54:39.582Z,2.72
2022-09-22T02:57:07.823Z,2.90
2022-09-22T02:59:35.786Z,2.90
2022-09-22T03:02:08.570Z,3.05
2022-09-22T03:04:36.598Z,3.08
2022-09-22T03:07:05.083Z,2.97
2022-09-22T03:09:44.209Z,2.95
2022-09-22T03:13:14.577Z,2.80
2022-09-22T03:15:36.003Z,3.20
2022-09-22T03:18:05.734Z,3.13
2022-09-22T03:20:33.599Z,3.13
2022-09-22T03:23:04.263Z,3.10
2022-09-22T03:25:32.681Z,3.00
2022-09-22T03:28:00.754Z,2.70
2022-09-22T03:30:28.899Z,3.10
2022-09-22T03:32:58.815Z,2.80
2022-09-22T03:35:28.328Z,2.92
2022-09-22T03:37:56.352Z,3.08
2022-09-22T03:40:24.521Z,2.90
2022-09-22T03:42:52.561Z,2.90
2022-09-22T03:45:20.589Z,2.90
2022-09-22T03:47:48.546Z,3.15
2022-09-22T03:50:16.555Z,2.80
2022-09-22T03:52:46.211Z,3.17
2022-09-22T03:55:14.406Z,2.97
2022-09-22T03:57:43.852Z,2.60
2022-09-22T04:00:14.222Z,3.08
2022-09-22T04:02:42.439Z,2.78
2022-09-22T04:05:11.363Z,2.80
2022-09-22T04:07:39.452Z,2.90
2022-09-22T04:10:09.603Z,2.83
2022-09-22T04:12:39.615Z,2.50
2022-09-22T04:15:08.568Z,2.80
2022-09-22T04:17:37.231Z,3.03
2022-09-22T04:20:07.290Z,2.58
2022-09-22T04:22:35.765Z,2.55
2022-09-22T04:25:03.901Z,3.00
2022-09-22T04:27:33.492Z,3.08
2022-09-22T04:30:02.279Z,2.72
2022-09-22T04:32:30.396Z,2.60
2022-09-22T04:34:58.490Z,2.55
2022-09-22T04:37:26.637Z,2.60
2022-09-22T04:39:55.606Z,2.58
2022-09-22T04:42:23.754Z,2.75
2022-09-22T04:44:53.060Z,3.00
2022-09-22T04:47:20.900Z,2.75
2022-09-22T04:49:48.805Z,2.95
2022-09-22T04:52:16.612Z,2.85
2022-09-22T04:54:47.041Z,2.72
2022-09-22T04:57:19.684Z,2.80
2022-09-22T04:59:49.107Z,3.10
2022-09-22T05:02:19.222Z,2.88
2022-09-22T05:04:47.801Z,2.92
2022-09-22T05:07:16.239Z,2.42
2022-09-22T05:09:44.346Z,3.20
2022-09-22T05:12:12.419Z,3.55
2022-09-22T05:14:40.766Z,3.95
2022-09-22T05:17:09.922Z,3.70
2022-09-22T05:19:39.614Z,4.07
2022-09-22T05:22:07.738Z,4.20
2022-09-22T05:24:35.611Z,5.18
2022-09-22T05:27:06.142Z,4.75
2022-09-22T05:29:34.308Z,4.43
2022-09-22T05:32:02.698Z,5.00
2022-09-22T05:34:31.309Z,4.95
2022-09-22T05:37:00.708Z,6.10
2022-09-22T05:39:28.966Z,4.63
2022-09-22T05:41:57.008Z,5.38
2022-09-22T05:44:25.279Z,6.00
2022-09-22T05:46:53.258Z,6.35
2022-09-22T05:49:21.574Z,5.65
2022-09-22T05:51:52.222Z,5.97
2022-09-22T05:54:23.494Z,5.55
2022-09-22T05:56:51.828Z,5.63
2022-09-22T05:59:19.993Z,5.45
2022-09-22T06:01:48.730Z,5.60
2022-09-22T06:04:16.953Z,5.65
2022-09-22T06:06:45.161Z,5.50
2022-09-22T06:09:16.472Z,4.78
2022-09-22T06:11:46.035Z,4.75
2022-09-22T06:14:14.035Z,4.70
2022-09-22T06:16:44.952Z,4.22
2022-09-22T06:19:13.013Z,4.63
2022-09-22T06:21:41.090Z,7.25
2022-09-22T06:24:09.094Z,8.88
2022-09-22T06:26:37.107Z,8.00
2022-09-22T06:29:10.923Z,8.18
2022-09-22T06:31:39.984Z,7.95
2022-09-22T06:34:08.500Z,6.75
2022-09-22T06:36:36.640Z,6.28
2022-09-22T06:39:05.735Z,5.80
2022-09-22T06:41:34.779Z,4.65
2022-09-22T06:44:03.425Z,3.65
2022-09-22T06:46:35.358Z,3.20
2022-09-22T06:49:03.316Z,2.30
2022-09-22T06:51:32.924Z,2.50
2022-09-22T06:54:02.232Z,5.30
2022-09-22T06:56:30.764Z,3.75
2022-09-22T06:59:10.026Z,2.67
2022-09-22T07:01:41.086Z,2.00
2022-09-22T07:04:09.860Z,1.80
2022-09-22T07:06:40.695Z,1.58
2022-09-22T07:09:09.541Z,1.60
2022-09-22T07:11:40.132Z,1.50
2022-09-22T07:14:10.385Z,1.35
2022-09-22T07:16:40.856Z,1.55
2022-09-22T07:19:09.060Z,1.35
2022-09-22T07:21:38.385Z,1.20
2022-09-22T07:24:08.866Z,1.40
2022-09-22T07:26:38.666Z,1.20
2022-09-22T07:29:11.607Z,0.98
2022-09-22T07:31:42.033Z,1.00
2022-09-22T07:34:10.741Z,1.27
2022-09-22T07:36:39.181Z,1.10
2022-09-22T07:39:10.463Z,1.35
2022-09-22T07:41:41.855Z,1.25
2022-09-22T07:44:29.027Z,1.38
2022-09-22T07:46:58.971Z,1.27
2022-09-22T07:49:28.520Z,1.20
2022-09-22T07:51:57.276Z,1.10
2022-09-22T07:54:26.924Z,1.30
2022-09-22T07:56:58.747Z,1.30
2022-09-22T07:59:27.713Z,1.50
2022-09-22T08:01:55.871Z,2.20
2022-09-22T08:04:27.091Z,1.50
2022-09-22T08:06:56.442Z,1.38
2022-09-22T08:09:26.078Z,1.40
2022-09-22T08:11:55.267Z,1.20
2022-09-22T08:14:24.102Z,1.20
2022-09-22T08:16:53.662Z,1.35
2022-09-22T08:19:25.478Z,1.10
2022-09-22T08:21:57.754Z,1.33
2022-09-22T08:24:25.675Z,1.25
2022-09-22T08:27:07.632Z,1.30
2022-09-22T08:29:35.858Z,1.45
2022-09-22T08:32:19.735Z,1.30
2022-09-22T08:34:50.476Z,1.33
2022-09-22T08:37:18.426Z,1.23
2022-09-22T08:39:46.529Z,1.20
2022-09-22T08:42:20.911Z,1.20
2022-09-22T08:44:57.811Z,1.20
2022-09-22T08:47:54.736Z,1.30
2022-09-22T08:50:49.541Z,1.42
2022-09-22T08:53:21.603Z,1.30
2022-09-22T08:56:00.689Z,1.20
2022-09-22T08:58:40.510Z,1.02
2022-09-22T09:01:21.752Z,1.00
2022-09-22T09:04:02.595Z,1.33
2022-09-22T09:06:40.209Z,1.10
2022-09-22T09:09:33.864Z,1.40
2022-09-22T09:12:13.809Z,1.20
2022-09-22T09:15:06.282Z,1.10
2022-09-22T09:17:37.521Z,1.10
2022-09-22T09:20:18.097Z,1.05
2022-09-22T09:22:52.921Z,2.00
2022-09-22T09:25:37.760Z,1.33
2022-09-22T09:28:08.500Z,1.30
2022-09-22T09:30:44.831Z,1.20
2022-09-22T09:33:23.500Z,1.38
2022-09-22T09:35:53.703Z,1.33
2022-09-22T09:38:29.734Z,1.25
2022-09-22T09:41:10.049Z,1.10
2022-09-22T09:43:43.060Z,1.00
2022-09-22T09:46:31.704Z,1.50
2022-09-22T09:49:09.154Z,1.02
2022-09-22T09:51:40.565Z,1.08
2022-09-22T09:54:16.908Z,1.23
2022-09-22T09:57:09.660Z,1.10
2022-09-22T10:00:05.337Z,1.02
2022-09-22T10:02:36.640Z,1.20
2022-09-22T10:05:08.763Z,0.90
2022-09-22T10:07:44.111Z,1.13
2022-09-22T10:10:34.259Z,0.75
2022-09-22T10:13:26.300Z,0.70
2022-09-22T10:16:18.467Z,0.70
2022-09-22T10:18:46.901Z,0.80
2022-09-22T10:21:16.761Z,0.80
2022-09-22T10:23:45.638Z,0.63
2022-09-22T10:26:21.740Z,0.65
2022-09-22T10:29:09.338Z,0.80
2022-09-22T10:31:38.583Z,0.93
2022-09-22T10:34:08.249Z,0.70
2022-09-22T10:36:44.716Z,0.80
2022-09-22T10:39:18.708Z,0.98
2022-09-22T10:41:49.760Z,1.00
2022-09-22T10:44:37.996Z,0.80
2022-09-22T10:47:33.379Z,0.80
2022-09-22T10:50:28.691Z,0.80
2022-09-22T10:53:05.825Z,1.10
2022-09-22T10:55:36.914Z,0.90
2022-09-22T10:58:28.697Z,0.90
2022-09-22T11:01:12.625Z,0.90
2022-09-22T11:04:17.488Z,1.20
2022-09-22T11:07:25.450Z,1.05
2022-09-22T11:10:31.728Z,1.10
2022-09-22T11:13:06.802Z,1.13
2022-09-22T11:15:55.964Z,1.13
2022-09-22T11:18:43.408Z,1.10
2022-09-22T11:21:21.971Z,1.20
2022-09-22T11:24:23.838Z,1.30
2022-09-22T11:26:53.934Z,2.28
2022-09-22T11:30:01.232Z,1.80
2022-09-22T11:32:55.696Z,1.70
2022-09-22T11:35:55.450Z,1.52
2022-09-22T11:38:46.448Z,1.20
2022-09-22T11:41:29.406Z,1.17
2022-09-22T11:44:15.042Z,1.20
2022-09-22T11:47:01.174Z,1.30
2022-09-22T11:49:47.461Z,1.10
2022-09-22T11:52:30.265Z,1.25
2022-09-22T11:55:15.137Z,1.52
2022-09-22T11:57:48.528Z,1.15
2022-09-22T12:00:19.388Z,1.17
2022-09-22T12:03:01.808Z,1.20
2022-09-22T12:05:39.419Z,0.82
2022-09-22T12:08:13.202Z,1.10
2022-09-22T12:10:44.665Z,1.20
2022-09-22T12:13:16.650Z,1.20
2022-09-22T12:15:58.857Z,1.13
2022-09-22T12:18:35.669Z,1.10
2022-09-22T12:21:16.518Z,0.90
2022-09-22T12:23:51.278Z,1.20
2022-09-22T12:26:28.710Z,0.90
2022-09-22T12:28:58.785Z,0.98
2022-09-22T12:31:36.167Z,0.90
2022-09-22T12:34:07.184Z,0.98
2022-09-22T12:36:39.609Z,0.95
2022-09-22T12:39:10.046Z,1.02
2022-09-22T12:41:50.110Z,0.75
2022-09-22T12:44:24.184Z,0.98
2022-09-22T12:46:53.285Z,1.58
2022-09-22T12:49:23.432Z,1.17
2022-09-22T12:51:53.335Z,1.17
2022-09-22T12:54:48.326Z,1.23
2022-09-22T12:57:26.627Z,1.08
2022-09-22T13:00:32.115Z,1.00
2022-09-22T13:03:02.637Z,1.00
2022-09-22T13:05:46.775Z,1.20
2022-09-22T13:08:47.061Z,0.85
2022-09-22T13:11:16.625Z,1.05
2022-09-22T13:13:46.848Z,0.80
2022-09-22T13:16:38.946Z,1.20
2022-09-22T13:19:14.861Z,0.90
2022-09-22T13:21:42.888Z,1.00
2022-09-22T13:24:25.116Z,1.08
2022-09-22T13:27:05.947Z,1.00
2022-09-22T13:29:34.535Z,0.90
2022-09-22T13:32:18.717Z,1.00
2022-09-22T13:34:47.016Z,1.00
2022-09-22T13:37:20.229Z,1.08
2022-09-22T13:39:50.502Z,1.08
2022-09-22T13:42:23.453Z,0.90
2022-09-22T13:45:01.223Z,1.20
2022-09-22T13:47:29.969Z,1.00
2022-09-22T13:50:04.451Z,1.00
2022-09-22T13:52:35.636Z,1.35
2022-09-22T13:55:10.167Z,0.90
2022-09-22T13:57:40.393Z,1.30
2022-09-22T14:00:17.678Z,0.82
2022-09-22T14:02:46.363Z,0.85
2022-09-22T14:05:20.471Z,0.93
2022-09-22T14:08:10.715Z,0.90
2022-09-22T14:10:38.220Z,0.90
2022-09-22T14:13:44.407Z,1.00
2022-09-22T14:16:21.255Z,1.00
2022-09-22T14:18:53.337Z,0.90
2022-09-22T14:21:22.547Z,0.68
2022-09-22T14:23:52.905Z,0.80
2022-09-22T14:26:33.674Z,0.82
2022-09-22T14:29:15.559Z,0.82
2022-09-22T14:31:47.258Z,0.80
2022-09-22T14:34:21.075Z,0.70
2022-09-22T14:36:52.293Z,0.60
2022-09-22T14:39:31.319Z,1.05
2022-09-22T14:42:09.382Z,1.00
2022-09-22T14:44:44.230Z,0.85
2022-09-22T14:47:27.654Z,0.85
2022-09-22T14:50:12.055Z,0.60
2022-09-22T14:52:47.367Z,0.85
2022-09-22T14:55:18.153Z,0.65
2022-09-22T14:57:50.057Z,0.50
2022-09-22T15:00:37.966Z,0.70
2022-09-22T15:03:16.632Z,0.75
2022-09-22T15:05:46.088Z,1.23
2022-09-22T15:08:18.166Z,0.90
2022-09-22T15:10:54.317Z,0.93
2022-09-22T15:13:30.699Z,0.90
2022-09-22T15:16:00.176Z,0.80
2022-09-22T15:18:30.743Z,0.98
2022-09-22T15:21:05.618Z,0.95
2022-09-22T15:23:43.869Z,1.00
2022-09-22T15:26:25.602Z,0.98
2022-09-22T15:28:55.148Z,1.00
2022-09-22T15:31:26.864Z,1.10
2022-09-22T15:33:56.192Z,1.10
2022-09-22T15:36:25.754Z,0.90
2022-09-22T15:39:00.591Z,1.20
2022-09-22T15:41:28.778Z,1.20
2022-09-22T15:43:56.968Z,1.17
2022-09-22T15:46:34.197Z,1.40
2022-09-22T15:49:05.623Z,1.55
2022-09-22T15:51:33.644Z,1.27
2022-09-22T15:54:01.754Z,1.23
2022-09-22T15:56:31.369Z,1.30
2022-09-22T15:59:01.218Z,1.40
2022-09-22T16:01:30.526Z,1.30
2022-09-22T16:04:04.742Z,1.40
2022-09-22T16:06:32.755Z,1.55
2022-09-22T16:09:00.748Z,1.40
2022-09-22T16:11:31.985Z,1.20
2022-09-22T16:14:03.771Z,1.58
2022-09-22T16:16:35.670Z,3.22
2022-09-22T16:19:03.890Z,1.92
2022-09-22T16:21:33.248Z,1.85
2022-09-22T16:24:03.962Z,1.40
2022-09-22T16:26:33.637Z,1.52
2022-09-22T16:29:01.982Z,1.63
2022-09-22T16:31:30.514Z,1.42
2022-09-22T16:34:02.093Z,1.80
2022-09-22T16:36:35.376Z,1.80
2022-09-22T16:39:04.617Z,2.03
2022-09-22T16:41:34.082Z,1.90
2022-09-22T16:44:03.195Z,1.77
2022-09-22T16:46:34.354Z,1.85
2022-09-22T16:49:05.875Z,2.08
2022-09-22T16:51:35.847Z,2.10
2022-09-22T16:54:05.572Z,1.60
2022-09-22T16:56:35.539Z,1.80
2022-09-22T16:59:05.539Z,1.88
2022-09-22T17:01:36.622Z,2.10
2022-09-22T17:04:08.114Z,1.60
2022-09-22T17:06:38.326Z,1.88
2022-09-22T17:09:07.699Z,1.98
2022-09-22T17:11:38.067Z,2.28
2022-09-22T17:14:12.121Z,2.50
2022-09-22T17:16:42.080Z,2.38
2022-09-22T17:19:13.086Z,2.50
2022-09-22T17:21:41.186Z,2.40
2022-09-22T17:24:10.136Z,2.55
2022-09-22T17:26:41.400Z,2.45
2022-09-22T17:29:10.937Z,2.35
2022-09-22T17:31:41.696Z,2.40
2022-09-22T17:34:12.053Z,2.38
2022-09-22T17:36:41.391Z,2.65
2022-09-22T17:39:10.764Z,2.40
2022-09-22T17:41:47.065Z,2.30
2022-09-22T17:44:20.907Z,2.40
2022-09-22T17:47:07.227Z,2.42
2022-09-22T17:49:54.764Z,2.60
2022-09-22T17:52:40.147Z,2.65
2022-09-22T17:55:14.228Z,2.95
2022-09-22T17:57:43.766Z,2.72
2022-09-22T18:00:14.208Z,2.85
2022-09-22T18:02:42.456Z,3.38
2022-09-22T18:05:14.133Z,3.05
2022-09-22T18:07:42.350Z,3.00
2022-09-22T18:10:18.045Z,2.80
2022-09-22T18:12:46.055Z,3.80
2022-09-22T18:15:17.138Z,3.00
2022-09-22T18:17:46.067Z,3.70
2022-09-22T18:20:18.177Z,3.42
2022-09-22T18:22:48.876Z,4.38
2022-09-22T18:25:19.396Z,4.07
2022-09-22T18:27:48.627Z,3.95
2022-09-22T18:30:23.169Z,3.58
2022-09-22T18:32:51.987Z,4.10
2022-09-22T18:35:21.801Z,3.65
2022-09-22T18:37:51.240Z,3.70
2022-09-22T18:40:19.645Z,4.30
2022-09-22T18:42:47.517Z,4.05
2022-09-22T18:45:15.458Z,4.03
2022-09-22T18:47:44.317Z,3.90
2022-09-22T18:50:13.090Z,4.15
2022-09-22T18:52:46.765Z,3.90
2022-09-22T18:55:17.351Z,4.00
2022-09-22T18:57:47.525Z,4.35
2022-09-22T19:00:16.216Z,4.35
2022-09-22T19:02:44.267Z,4.70
2022-09-22T19:05:12.465Z,4.38
2022-09-22T19:07:43.617Z,4.75
2022-09-22T19:10:16.225Z,5.15
2022-09-22T19:12:44.209Z,6.43
2022-09-22T19:15:15.280Z,5.50
2022-09-22T19:17:44.885Z,6.25
2022-09-22T19:20:15.231Z,6.05
2022-09-22T19:22:43.127Z,4.60
2022-09-22T19:25:11.675Z,4.15
2022-09-22T19:27:41.134Z,4.05
2022-09-22T19:30:12.752Z,3.78
2022-09-22T19:32:41.473Z,4.10
2022-09-22T19:35:09.987Z,4.25
2022-09-22T19:37:39.648Z,3.35
2022-09-22T19:40:10.930Z,3.08
2022-09-22T19:42:40.637Z,3.38
2022-09-22T19:45:09.430Z,3.28
2022-09-22T19:47:37.527Z,3.25
2022-09-22T19:50:06.670Z,3.05
2022-09-22T19:52:38.254Z,3.10
2022-09-22T19:55:07.925Z,2.83
2022-09-22T19:57:41.211Z,2.78
2022-09-22T20:00:13.387Z,2.90
2022-09-22T20:02:42.182Z,2.72
2022-09-22T20:05:19.226Z,2.78
2022-09-22T20:07:47.269Z,3.10
2022-09-22T20:10:17.129Z,3.10
2022-09-22T20:12:45.161Z,3.05
2022-09-22T20:15:15.177Z,2.78
2022-09-22T20:17:46.221Z,3.10
2022-09-22T20:20:15.694Z,3.00
2022-09-22T20:22:45.417Z,3.00
2022-09-22T20:25:23.131Z,2.90
2022-09-22T20:27:51.418Z,2.80
2022-09-22T20:30:21.177Z,2.78
2022-09-22T20:32:51.390Z,3.10
2022-09-22T20:35:22.014Z,3.15
2022-09-22T20:37:51.631Z,3.20
2022-09-22T20:40:23.173Z,3.05
2022-09-22T20:42:54.331Z,3.20
2022-09-22T20:45:24.838Z,3.25
2022-09-22T20:47:53.075Z,3.17
2022-09-22T20:50:21.636Z,4.00
2022-09-22T20:52:50.617Z,3.50
2022-09-22T20:55:18.869Z,3.85
2022-09-22T20:57:47.084Z,4.25
2022-09-22T21:00:16.378Z,2.97
2022-09-22T21:02:45.880Z,3.80
2022-09-22T21:05:13.981Z,3.58
2022-09-22T21:07:41.984Z,3.60
2022-09-22T21:10:28.154Z,3.75
2022-09-22T21:12:56.603Z,3.47
2022-09-22T21:15:24.670Z,3.40
2022-09-22T21:17:54.343Z,3.55
2022-09-22T21:20:23.253Z,3.15
2022-09-22T21:22:52.727Z,3.40
2022-09-22T21:25:20.847Z,3.58
2022-09-22T21:27:48.840Z,3.78
2022-09-22T21:30:16.860Z,3.53
2022-09-22T21:32:45.104Z,3.47
2022-09-22T21:35:16.788Z,3.90
2022-09-22T21:37:45.964Z,3.40
2022-09-22T21:40:14.489Z,3.17
2022-09-22T21:42:45.024Z,3.40
2022-09-22T21:45:13.119Z,3.35
2022-09-22T21:47:41.189Z,3.67
2022-09-22T21:50:10.235Z,3.10
2022-09-22T21:52:39.769Z,3.30
2022-09-22T21:55:08.814Z,3.20
2022-09-22T21:57:36.802Z,3.42
2022-09-22T22:00:07.758Z,3.20
2022-09-22T22:03:01.908Z,3.35
2022-09-22T22:05:31.080Z,3.15
2022-09-22T22:08:00.646Z,3.08
2022-09-22T22:10:28.780Z,3.47
2022-09-22T22:12:57.072Z,2.75
2022-09-22T22:15:25.274Z,2.90
2022-09-22T22:17:53.960Z,3.05
2022-09-22T22:20:21.984Z,2.97
2022-09-22T22:22:50.034Z,2.30
2022-09-22T22:25:23.783Z,2.70
2022-09-22T22:27:51.936Z,2.42
2022-09-22T22:30:19.943Z,2.50
2022-09-22T22:32:50.785Z,2.40
2022-09-22T22:35:20.142Z,2.38
2022-09-22T22:37:48.221Z,2.50
2022-09-22T22:40:18.328Z,2.60
2022-09-22T22:42:48.024Z,2.50
2022-09-22T22:45:16.220Z,2.50
2022-09-22T22:47:44.265Z,2.47
2022-09-22T22:50:12.265Z,2.58
2022-09-22T22:52:41.428Z,2.40
2022-09-22T22:55:10.718Z,2.72
2022-09-22T22:57:38.616Z,2.20
2022-09-22T23:00:10.152Z,2.10
2022-09-22T23:02:38.725Z,2.40
2022-09-22T23:05:07.788Z,2.05
2022-09-22T23:07:36.043Z,2.30
2022-09-22T23:10:07.355Z,2.10
2022-09-22T23:12:36.283Z,2.45
2022-09-22T23:15:04.495Z,2.40
2022-09-22T23:17:33.908Z,2.25
2022-09-22T23:20:02.363Z,2.40
2022-09-22T23:22:30.655Z,2.20
2022-09-22T23:24:58.697Z,2.58
2022-09-22T23:27:28.639Z,2.22
2022-09-22T23:29:57.256Z,2.15
2022-09-22T23:32:25.633Z,2.60
2022-09-22T23:34:55.003Z,2.40
2022-09-22T23:37:25.057Z,2.40
2022-09-22T23:39:53.587Z,2.20
2022-09-22T23:42:22.024Z,2.20
2022-09-22T23:44:51.610Z,2.10
2022-09-22T23:47:19.686Z,2.35
2022-09-22T23:49:48.091Z,2.25
2022-09-22T23:52:17.791Z,2.20
2022-09-22T23:54:46.558Z,2.30
2022-09-22T23:57:14.640Z,2.28
2022-09-22T23:59:42.533Z,2.30
